Time;durP1;ratioP1;P1;durP2;ratioP2;P2;SDS_P1;SDS_P2;PMS_P1;PMS_P2;Temp;Humidity;BMP_temperature;BMP_pressure;BME280_temperature;BME280_humidity;BME280_pressure;Samples;Min_cycle;Max_cycle;Signal;HPM_P1;HPM_P2
2022/07/31 00:00:24;;;;;;;12.45;8.32;;;20.30;99.90;;;;;;5087300;28;20377;-67
2022/07/31 00:02:50;;;;;;;12.80;8.20;;;20.30;99.90;;;;;;5085269;28;20389;-67
2022/07/31 00:05:16;;;;;;;11.82;8.65;;;20.40;99.90;;;;;;5085635;28;20389;-67
2022/07/31 00:07:42;;;;;;;15.90;8.60;;;20.40;99.90;;;;;;5085315;28;20425;-67
2022/07/31 00:10:08;;;;;;;16.67;9.13;;;20.30;99.90;;;;;;5090386;28;20493;-67
2022/07/31 00:12:34;;;;;;;13.20;8.93;;;20.20;99.90;;;;;;5088978;28;20580;-67
2022/07/31 00:15:01;;;;;;;12.52;8.00;;;20.00;99.90;;;;;;5086550;28;20390;-67
2022/07/31 00:17:27;;;;;;;10.93;8.00;;;20.10;99.90;;;;;;5088550;28;20686;-67
2022/07/31 00:19:52;;;;;;;13.38;8.30;;;20.10;99.90;;;;;;5088683;28;20664;-67
2022/07/31 00:22:18;;;;;;;11.37;8.20;;;20.10;99.90;;;;;;5089971;28;20786;-67
2022/07/31 00:24:43;;;;;;;13.38;8.30;;;20.10;99.90;;;;;;5089124;28;20470;-67
2022/07/31 00:27:09;;;;;;;13.10;8.37;;;20.10;99.90;;;;;;5090971;28;20393;-67
2022/07/31 00:29:36;;;;;;;11.82;7.60;;;20.00;99.90;;;;;;5089232;28;20381;-67
2022/07/31 00:32:02;;;;;;;15.30;8.07;;;19.90;99.90;;;;;;5087847;28;20790;-67
2022/07/31 00:34:28;;;;;;;10.93;8.10;;;20.00;99.90;;;;;;5088152;28;20374;-67
2022/07/31 00:36:53;;;;;;;10.37;7.40;;;20.00;99.90;;;;;;5088260;28;20451;-67
2022/07/31 00:39:19;;;;;;;11.37;7.93;;;20.00;99.90;;;;;;5088258;28;20374;-67
2022/07/31 00:41:45;;;;;;;13.75;8.07;;;20.00;99.90;;;;;;5087708;28;20405;-67
2022/07/31 00:44:12;;;;;;;10.70;8.25;;;20.10;99.90;;;;;;5090049;28;20662;-67
2022/07/31 00:46:39;;;;;;;15.88;8.57;;;20.00;99.90;;;;;;5090210;28;20382;-67
2022/07/31 00:49:11;;;;;;;12.32;8.75;;;19.90;99.90;;;;;;5091822;28;20389;-68
2022/07/31 00:51:38;;;;;;;11.13;7.93;;;19.80;99.90;;;;;;5088782;28;20542;-67
2022/07/31 00:54:04;;;;;;;11.50;9.33;;;19.70;99.90;;;;;;5086220;28;20386;-68
2022/07/31 00:56:30;;;;;;;12.43;9.57;;;19.60;99.90;;;;;;5086795;28;20417;-71
2022/07/31 00:58:55;;;;;;;13.07;9.50;;;19.50;99.90;;;;;;5086880;28;20477;-68
2022/07/31 01:01:21;;;;;;;12.90;8.85;;;19.50;99.90;;;;;;5089376;28;20382;-68
2022/07/31 01:03:47;;;;;;;11.38;7.63;;;19.50;99.90;;;;;;5089642;28;20517;-68
2022/07/31 01:06:13;;;;;;;10.90;8.48;;;19.60;99.90;;;;;;5089509;28;20773;-67
2022/07/31 01:08:39;;;;;;;14.60;9.20;;;19.70;99.90;;;;;;5089886;28;20393;-67
2022/07/31 01:11:15;;;;;;;13.47;10.30;;;19.70;99.90;;;;;;5092994;28;20401;-67
2022/07/31 01:13:56;;;;;;;11.23;8.80;;;19.60;99.90;;;;;;5089664;28;20768;-67
2022/07/31 01:16:25;;;;;;;12.40;9.75;;;19.70;99.90;;;;;;5091910;28;20378;-67
2022/07/31 01:18:54;;;;;;;12.43;9.02;;;19.70;99.90;;;;;;5089626;28;20500;-67
2022/07/31 01:21:26;;;;;;;9.23;8.32;;;19.70;99.90;;;;;;5090535;28;20381;-67
2022/07/31 01:24:10;;;;;;;10.85;9.18;;;19.70;99.90;;;;;;5091018;28;20381;-67
2022/07/31 01:26:45;;;;;;;11.30;8.18;;;19.80;99.90;;;;;;5089919;28;20805;-67
2022/07/31 01:29:27;;;;;;;10.10;8.13;;;19.80;99.90;;;;;;5092691;28;20389;-67
2022/07/31 01:32:03;;;;;;;13.17;8.93;;;19.70;99.90;;;;;;5092759;28;20410;-67
2022/07/31 01:34:40;;;;;;;13.40;8.70;;;19.70;99.90;;;;;;5090834;28;20413;-67
2022/07/31 01:37:19;;;;;;;12.32;9.68;;;19.60;99.90;;;;;;5089636;28;20684;-67
2022/07/31 01:39:57;;;;;;;16.60;9.67;;;19.50;99.90;;;;;;5090840;28;20698;-67
2022/07/31 01:42:24;;;;;;;12.93;9.48;;;19.50;99.90;;;;;;5090657;28;20382;-67
2022/07/31 01:44:55;;;;;;;11.17;8.57;;;19.50;99.90;;;;;;5092503;28;20409;-67
2022/07/31 01:47:21;;;;;;;13.00;9.02;;;19.50;99.90;;;;;;5093041;28;20381;-67
2022/07/31 01:49:50;;;;;;;10.55;8.65;;;19.50;99.90;;;;;;5094868;28;20382;-67
2022/07/31 01:52:18;;;;;;;13.73;9.45;;;19.50;99.90;;;;;;5095698;28;20412;-67
2022/07/31 01:54:45;;;;;;;11.85;9.18;;;19.40;99.90;;;;;;5095484;28;20390;-67
2022/07/31 01:57:13;;;;;;;13.87;8.50;;;19.40;99.90;;;;;;5094930;28;20506;-68
2022/07/31 01:59:39;;;;;;;10.88;8.80;;;19.40;99.90;;;;;;5095998;28;20370;-67
2022/07/31 02:02:05;;;;;;;13.88;8.38;;;19.40;99.90;;;;;;5096058;28;20484;-67
2022/07/31 02:04:32;;;;;;;9.63;8.47;;;19.40;99.90;;;;;;5093441;28;20465;-67
2022/07/31 02:07:01;;;;;;;10.55;8.50;;;19.40;99.90;;;;;;5092114;28;20474;-67
2022/07/31 02:09:28;;;;;;;12.88;9.70;;;19.40;99.90;;;;;;5094381;28;20388;-67
2022/07/31 02:11:54;;;;;;;13.52;9.25;;;19.40;99.90;;;;;;5093225;28;20468;-67
2022/07/31 02:14:21;;;;;;;14.53;9.73;;;19.30;99.90;;;;;;5092260;28;20817;-67
2022/07/31 02:16:48;;;;;;;13.73;10.50;;;19.30;99.90;;;;;;5092168;28;20485;-67
2022/07/31 02:19:15;;;;;;;12.53;10.10;;;19.30;99.90;;;;;;5089323;28;20417;-67
2022/07/31 02:21:41;;;;;;;12.90;10.27;;;19.30;99.90;;;;;;5089735;28;20516;-67
2022/07/31 02:24:07;;;;;;;15.57;10.43;;;19.20;99.90;;;;;;5092467;28;20378;-67
2022/07/31 02:26:34;;;;;;;11.18;9.20;;;19.30;99.90;;;;;;5090731;28;20447;-67
2022/07/31 02:29:01;;;;;;;10.38;9.23;;;19.30;99.90;;;;;;5092053;28;20382;-67
2022/07/31 02:31:29;;;;;;;12.90;9.02;;;19.30;99.90;;;;;;5092273;28;20390;-67
2022/07/31 02:33:54;;;;;;;10.63;9.00;;;19.30;99.90;;;;;;5093757;28;20440;-67
2022/07/31 02:36:22;;;;;;;16.23;10.10;;;19.30;99.90;;;;;;5093786;28;20863;-67
2022/07/31 02:38:50;;;;;;;11.98;9.43;;;19.30;99.90;;;;;;5093996;28;20690;-67
2022/07/31 02:41:16;;;;;;;11.93;8.85;;;19.30;99.90;;;;;;5094542;28;20396;-67
2022/07/31 02:43:43;;;;;;;14.02;9.20;;;19.20;99.90;;;;;;5093251;28;20825;-67
2022/07/31 02:46:11;;;;;;;12.15;8.70;;;19.30;99.90;;;;;;5091986;28;20787;-67
2022/07/31 02:48:37;;;;;;;11.07;9.10;;;19.30;99.90;;;;;;5090465;28;20390;-68
2022/07/31 02:51:03;;;;;;;10.30;8.00;;;19.30;99.90;;;;;;5090951;28;20717;-67
2022/07/31 02:53:30;;;;;;;11.00;8.18;;;19.20;99.90;;;;;;5092033;28;20382;-67
2022/07/31 02:55:56;;;;;;;9.63;8.02;;;19.30;99.90;;;;;;5091305;28;20394;-68
2022/07/31 02:58:21;;;;;;;9.73;8.25;;;19.30;99.90;;;;;;5090442;28;20394;-67
2022/07/31 03:00:56;;;;;;;10.75;7.40;;;19.30;99.90;;;;;;5091190;28;20389;-67
2022/07/31 03:03:21;;;;;;;8.57;7.33;;;19.30;99.90;;;;;;5091708;28;20950;-67
2022/07/31 03:05:47;;;;;;;9.97;7.43;;;19.20;99.90;;;;;;5090222;28;20477;-67
2022/07/31 03:08:14;;;;;;;9.60;7.80;;;19.20;99.90;;;;;;5089886;28;20489;-68
2022/07/31 03:10:39;;;;;;;12.13;7.80;;;19.10;99.90;;;;;;5092396;28;20786;-67
2022/07/31 03:13:06;;;;;;;11.45;7.88;;;19.10;99.90;;;;;;5091152;28;20397;-67
2022/07/31 03:15:32;;;;;;;10.90;8.32;;;19.00;99.90;;;;;;5091312;28;20389;-68
2022/07/31 03:17:58;;;;;;;10.77;8.10;;;18.90;99.90;;;;;;5089023;28;20474;-67
2022/07/31 03:20:25;;;;;;;9.77;8.32;;;18.90;99.90;;;;;;5091251;28;20659;-67
2022/07/31 03:22:52;;;;;;;10.85;8.27;;;19.00;99.90;;;;;;5091896;28;20382;-67
2022/07/31 03:25:17;;;;;;;10.85;8.27;;;19.00;99.90;;;;;;5090711;28;20385;-67
2022/07/31 03:27:43;;;;;;;9.20;7.03;;;18.90;99.90;;;;;;5090401;28;20389;-67
2022/07/31 03:30:17;;;;;;;9.67;7.40;;;18.90;99.90;;;;;;5092042;28;20386;-67
2022/07/31 03:32:43;;;;;;;11.90;7.40;;;18.90;99.90;;;;;;5091635;28;20464;-67
2022/07/31 03:35:09;;;;;;;9.98;7.45;;;18.90;99.90;;;;;;5092602;28;20665;-67
2022/07/31 03:37:35;;;;;;;9.30;7.20;;;18.90;99.90;;;;;;5091212;28;20910;-67
2022/07/31 03:40:00;;;;;;;8.05;6.97;;;18.80;99.90;;;;;;5092593;28;20761;-67
2022/07/31 03:42:27;;;;;;;9.87;7.77;;;18.80;99.90;;;;;;5092941;28;20385;-67
2022/07/31 03:44:54;;;;;;;8.75;6.97;;;18.80;99.90;;;;;;5093891;28;20412;-67
2022/07/31 03:47:20;;;;;;;9.88;7.32;;;18.80;99.90;;;;;;5094584;28;20510;-67
2022/07/31 03:49:47;;;;;;;10.17;7.10;;;18.70;99.90;;;;;;5094603;28;20688;-67
2022/07/31 03:52:12;;;;;;;10.50;7.65;;;18.70;99.90;;;;;;5093263;28;20389;-67
2022/07/31 03:54:38;;;;;;;9.25;7.03;;;18.70;99.90;;;;;;5092449;28;20382;-68
2022/07/31 03:57:06;;;;;;;7.83;6.87;;;18.70;99.90;;;;;;5093339;28;20412;-68
2022/07/31 03:59:34;;;;;;;8.13;6.73;;;18.60;99.90;;;;;;5092932;28;20385;-68
2022/07/31 04:02:00;;;;;;;8.80;6.70;;;18.70;99.90;;;;;;5091509;28;20429;-68
2022/07/31 04:04:26;;;;;;;9.82;6.85;;;18.70;99.90;;;;;;5090027;28;20430;-67
2022/07/31 04:06:52;;;;;;;9.10;6.88;;;18.70;99.90;;;;;;5090095;28;20662;-67
2022/07/31 04:09:19;;;;;;;8.93;6.90;;;18.80;99.90;;;;;;5090953;28;20832;-68
2022/07/31 04:11:45;;;;;;;10.00;6.90;;;18.70;99.90;;;;;;5091700;28;20412;-67
2022/07/31 04:14:10;;;;;;;8.52;7.35;;;18.80;99.90;;;;;;5089677;28;20382;-67
2022/07/31 04:16:36;;;;;;;10.65;7.03;;;18.80;99.90;;;;;;5088549;28;20406;-67
2022/07/31 04:19:02;;;;;;;7.73;6.90;;;18.80;99.90;;;;;;5088368;28;20390;-67
2022/07/31 04:21:27;;;;;;;7.97;6.73;;;18.80;99.90;;;;;;5089239;28;20374;-67
2022/07/31 04:23:53;;;;;;;11.60;8.27;;;18.80;99.90;;;;;;5090194;28;20493;-67
2022/07/31 04:26:19;;;;;;;10.57;8.23;;;18.70;99.90;;;;;;5088436;28;20394;-67
2022/07/31 04:28:44;;;;;;;11.15;8.40;;;18.70;99.90;;;;;;5090862;28;20451;-67
2022/07/31 04:31:10;;;;;;;9.73;7.75;;;18.70;99.90;;;;;;5090388;28;20407;-67
2022/07/31 04:33:36;;;;;;;10.30;7.20;;;18.70;99.90;;;;;;5090512;28;20475;-67
2022/07/31 04:36:01;;;;;;;12.55;8.07;;;18.80;99.90;;;;;;5091428;28;20522;-67
2022/07/31 04:38:27;;;;;;;10.73;8.60;;;18.80;99.90;;;;;;5091246;28;20401;-67
2022/07/31 04:40:53;;;;;;;11.32;8.90;;;18.70;99.90;;;;;;5090834;28;20394;-67
2022/07/31 04:43:22;;;;;;;9.37;7.73;;;18.70;99.90;;;;;;5089255;28;20390;-67
2022/07/31 04:45:48;;;;;;;13.30;8.83;;;18.70;99.90;;;;;;5093562;28;20842;-67
2022/07/31 04:48:13;;;;;;;12.30;9.50;;;18.80;99.90;;;;;;5093789;28;20378;-67
2022/07/31 04:50:39;;;;;;;13.13;9.45;;;18.70;99.90;;;;;;5092545;28;20550;-67
2022/07/31 04:53:05;;;;;;;14.27;9.37;;;18.60;99.90;;;;;;5091416;28;20687;-67
2022/07/31 04:55:30;;;;;;;11.23;8.90;;;18.60;99.90;;;;;;5089693;28;20559;-67
2022/07/31 04:57:56;;;;;;;12.60;10.10;;;18.60;99.90;;;;;;5090058;28;20470;-67
2022/07/31 05:00:21;;;;;;;13.82;10.18;;;18.60;99.90;;;;;;5089718;28;20385;-67
2022/07/31 05:02:47;;;;;;;13.10;10.27;;;18.50;99.90;;;;;;5088547;28;20404;-67
2022/07/31 05:05:13;;;;;;;9.13;8.17;;;18.50;99.90;;;;;;5089507;28;20385;-67
2022/07/31 05:07:38;;;;;;;10.38;9.23;;;18.60;99.90;;;;;;5090222;28;20409;-67
2022/07/31 05:10:04;;;;;;;10.93;8.27;;;18.60;99.90;;;;;;5089995;28;20809;-67
2022/07/31 05:12:30;;;;;;;11.77;9.38;;;18.60;99.90;;;;;;5091808;28;20652;-67
2022/07/31 05:14:55;;;;;;;9.95;8.25;;;18.70;99.90;;;;;;5090966;28;20385;-67
2022/07/31 05:17:21;;;;;;;9.20;7.87;;;18.80;99.90;;;;;;5092429;28;20409;-67
2022/07/31 05:19:47;;;;;;;11.20;7.87;;;18.70;99.90;;;;;;5091748;28;20374;-67
2022/07/31 05:22:13;;;;;;;11.80;8.82;;;18.80;99.90;;;;;;5091841;28;20389;-67
2022/07/31 05:24:39;;;;;;;9.25;7.78;;;18.90;99.90;;;;;;5089279;28;20389;-67
2022/07/31 05:27:04;;;;;;;8.20;7.13;;;18.90;99.90;;;;;;5089484;28;20382;-67
2022/07/31 05:29:31;;;;;;;7.33;6.60;;;18.90;99.90;;;;;;5091573;28;20401;-67
2022/07/31 05:31:57;;;;;;;9.18;7.25;;;19.00;99.90;;;;;;5092040;28;20708;-67
2022/07/31 05:34:22;;;;;;;7.97;6.70;;;19.10;99.90;;;;;;5093650;28;20394;-67
2022/07/31 05:36:49;;;;;;;7.30;6.60;;;19.10;99.90;;;;;;5092771;28;20548;-67
2022/07/31 05:39:16;;;;;;;6.47;5.85;;;19.20;99.90;;;;;;5092855;28;20417;-67
2022/07/31 05:41:42;;;;;;;9.63;8.23;;;19.20;99.90;;;;;;5091312;28;20417;-67
2022/07/31 05:44:07;;;;;;;7.95;7.15;;;19.20;99.90;;;;;;5092269;28;20794;-67
2022/07/31 05:46:33;;;;;;;10.33;9.23;;;19.10;99.90;;;;;;5091126;28;20677;-67
2022/07/31 05:48:59;;;;;;;11.23;9.27;;;19.10;99.90;;;;;;5089473;28;20382;-67
2022/07/31 05:51:24;;;;;;;9.35;7.35;;;18.90;99.90;;;;;;5091451;28;20382;-67
2022/07/31 05:53:50;;;;;;;8.00;6.67;;;18.90;99.90;;;;;;5090773;28;20658;-67
2022/07/31 05:56:16;;;;;;;10.63;8.27;;;19.00;99.90;;;;;;5090062;28;20397;-67
2022/07/31 05:58:42;;;;;;;12.43;10.20;;;19.10;99.90;;;;;;5088381;28;20402;-67
2022/07/31 06:01:08;;;;;;;12.85;9.20;;;19.10;99.90;;;;;;5087699;28;20374;-67
2022/07/31 06:03:35;;;;;;;8.00;7.20;;;19.10;99.90;;;;;;5093068;28;20402;-67
2022/07/31 06:06:02;;;;;;;10.73;8.10;;;19.20;99.90;;;;;;5110165;28;20791;-67
2022/07/31 06:08:29;;;;;;;10.00;7.60;;;19.30;99.90;;;;;;5092416;28;20399;-67
2022/07/31 06:10:55;;;;;;;11.40;7.93;;;19.40;99.90;;;;;;5066446;28;20660;-67
2022/07/31 06:13:26;;;;;;;15.25;8.55;;;19.50;99.90;;;;;;5066189;28;20426;-67
2022/07/31 06:15:52;;;;;;;7.90;5.90;;;19.40;99.90;;;;;;5066862;28;20733;-67
2022/07/31 06:18:17;;;;;;;10.55;5.40;;;19.40;99.90;;;;;;5066931;28;20694;-67
2022/07/31 06:20:43;;;;;;;5.35;3.97;;;19.50;99.90;;;;;;5067099;28;20795;-67
2022/07/31 06:23:09;;;;;;;8.55;6.55;;;19.60;99.90;;;;;;5068646;28;20403;-67
2022/07/31 06:25:34;;;;;;;6.27;4.83;;;19.60;99.90;;;;;;5066974;28;20710;-67
2022/07/31 06:28:00;;;;;;;4.33;3.57;;;19.60;99.90;;;;;;5066747;28;20649;-68
2022/07/31 06:30:25;;;;;;;4.88;3.75;;;19.70;99.90;;;;;;5066875;28;20490;-68
2022/07/31 06:32:51;;;;;;;7.83;5.40;;;19.80;99.90;;;;;;5066492;28;20493;-67
2022/07/31 06:35:17;;;;;;;5.68;5.10;;;19.80;99.90;;;;;;5065319;28;20937;-67
2022/07/31 06:37:42;;;;;;;4.47;3.57;;;19.80;99.90;;;;;;5065205;28;20672;-67
2022/07/31 06:40:08;;;;;;;4.45;2.75;;;19.80;99.90;;;;;;5062887;28;20442;-67
2022/07/31 06:42:34;;;;;;;4.68;2.65;;;19.90;99.90;;;;;;5066973;28;20633;-67
2022/07/31 06:44:59;;;;;;;4.10;3.20;;;19.90;99.90;;;;;;5100961;28;20405;-67
2022/07/31 06:47:25;;;;;;;9.48;6.03;;;20.00;99.90;;;;;;5065751;28;20465;-67
2022/07/31 06:49:52;;;;;;;7.28;4.78;;;19.90;99.90;;;;;;5063201;28;20419;-67
2022/07/31 06:52:17;;;;;;;4.88;3.83;;;19.70;99.90;;;;;;5062234;28;20379;-67
2022/07/31 06:54:43;;;;;;;4.88;3.45;;;19.80;99.90;;;;;;5063135;28;20387;-67
2022/07/31 06:57:10;;;;;;;9.57;5.95;;;19.90;99.90;;;;;;5063770;28;20403;-67
2022/07/31 06:59:35;;;;;;;4.30;3.55;;;19.90;99.90;;;;;;5064727;28;20663;-67
2022/07/31 07:02:02;;;;;;;8.88;6.25;;;19.90;99.90;;;;;;5063189;28;20763;-67
2022/07/31 07:04:28;;;;;;;10.73;6.28;;;19.90;99.90;;;;;;5059320;28;20476;-67
2022/07/31 07:06:53;;;;;;;12.32;7.60;;;19.90;99.90;;;;;;5055667;28;20380;-67
2022/07/31 07:09:19;;;;;;;10.02;6.85;;;19.80;99.90;;;;;;5054771;28;20671;-67
2022/07/31 07:11:46;;;;;;;8.17;7.23;;;19.90;99.90;;;;;;5056346;28;20430;-67
2022/07/31 07:14:11;;;;;;;8.48;7.57;;;20.00;99.90;;;;;;5057178;28;20451;-67
2022/07/31 07:16:37;;;;;;;7.60;6.63;;;20.00;99.90;;;;;;5056574;28;20387;-67
2022/07/31 07:19:03;;;;;;;13.77;9.57;;;20.00;99.90;;;;;;5056060;28;20395;-67
2022/07/31 07:21:28;;;;;;;11.23;9.33;;;19.80;99.90;;;;;;5057861;28;20847;-67
2022/07/31 07:23:54;;;;;;;10.80;9.00;;;19.70;99.90;;;;;;5060853;28;20803;-67
2022/07/31 07:26:19;;;;;;;7.70;7.00;;;19.70;99.90;;;;;;5060837;28;20391;-67
2022/07/31 07:28:45;;;;;;;12.60;9.68;;;19.80;99.90;;;;;;5063844;28;20392;-68
2022/07/31 07:31:11;;;;;;;14.90;8.87;;;19.70;99.90;;;;;;5061106;28;20441;-67
2022/07/31 07:33:37;;;;;;;7.57;6.07;;;19.60;99.90;;;;;;5060871;28;20559;-67
2022/07/31 07:36:03;;;;;;;9.52;6.93;;;19.70;99.90;;;;;;5060079;28;20969;-67
2022/07/31 07:38:28;;;;;;;8.27;6.60;;;19.80;99.90;;;;;;5062490;28;20585;-67
2022/07/31 07:40:54;;;;;;;7.80;6.00;;;19.70;99.90;;;;;;5063248;28;20481;-67
2022/07/31 07:43:20;;;;;;;6.63;4.70;;;19.80;99.90;;;;;;5063544;28;20780;-67
2022/07/31 07:45:45;;;;;;;7.65;4.75;;;19.90;99.90;;;;;;5061848;28;20380;-68
2022/07/31 07:48:11;;;;;;;8.03;5.27;;;20.00;99.90;;;;;;5059604;28;20736;-67
2022/07/31 07:50:36;;;;;;;8.45;4.93;;;20.00;99.90;;;;;;5060252;28;20402;-67
2022/07/31 07:53:02;;;;;;;8.77;4.43;;;20.00;99.90;;;;;;5058005;28;20413;-68
2022/07/31 07:55:27;;;;;;;6.95;4.43;;;20.00;99.90;;;;;;5061022;28;20835;-67
2022/07/31 07:57:53;;;;;;;6.22;4.18;;;20.10;99.90;;;;;;5058624;28;20411;-67
2022/07/31 08:00:19;;;;;;;9.17;5.43;;;20.10;99.90;;;;;;5053076;28;20411;-67
2022/07/31 08:02:47;;;;;;;5.87;4.60;;;20.20;99.90;;;;;;5056189;28;20663;-67
2022/07/31 08:05:13;;;;;;;11.15;4.82;;;20.20;99.90;;;;;;5057831;28;20715;-67
2022/07/31 08:07:39;;;;;;;8.43;4.78;;;20.30;99.90;;;;;;5058351;28;20388;-67
2022/07/31 08:10:06;;;;;;;7.57;5.45;;;20.30;99.90;;;;;;5059155;28;20414;-68
2022/07/31 08:12:32;;;;;;;7.45;5.43;;;20.30;99.90;;;;;;5059992;28;20548;-67
2022/07/31 08:14:58;;;;;;;4.38;3.83;;;20.30;99.90;;;;;;5060080;28;20479;-67
2022/07/31 08:17:24;;;;;;;9.20;4.28;;;20.40;99.90;;;;;;5059766;28;20403;-68
2022/07/31 08:19:50;;;;;;;8.18;4.63;;;20.50;99.90;;;;;;5062986;28;20505;-67
2022/07/31 08:22:15;;;;;;;8.90;4.50;;;20.40;99.90;;;;;;5063147;28;20395;-67
2022/07/31 08:24:41;;;;;;;8.67;4.30;;;20.20;99.90;;;;;;5063587;28;20391;-67
2022/07/31 08:27:26;;;;;;;4.40;3.03;;;20.10;99.90;;;;;;5061469;28;20388;-67
2022/07/31 08:29:56;;;;;;;9.37;4.80;;;20.30;99.90;;;;;;5062979;28;20379;-67
2022/07/31 08:32:24;;;;;;;6.65;4.68;;;20.40;99.90;;;;;;5061483;28;20653;-67
2022/07/31 08:34:50;;;;;;;3.85;3.30;;;20.30;99.90;;;;;;5062078;28;20399;-67
2022/07/31 08:37:19;;;;;;;5.38;3.88;;;20.40;99.90;;;;;;5061250;28;20411;-67
2022/07/31 08:39:46;;;;;;;7.03;4.70;;;20.60;99.90;;;;;;5060739;28;20656;-67
2022/07/31 08:42:13;;;;;;;10.00;4.50;;;20.60;99.90;;;;;;5059321;28;20484;-67
2022/07/31 08:44:40;;;;;;;6.03;3.75;;;20.50;99.90;;;;;;5060485;28;20805;-67
2022/07/31 08:47:11;;;;;;;6.78;4.78;;;20.60;99.90;;;;;;5057924;28;20433;-67
2022/07/31 08:49:40;;;;;;;7.90;4.47;;;20.50;99.90;;;;;;5057148;28;20496;-68
2022/07/31 08:52:11;;;;;;;5.32;3.67;;;20.50;99.90;;;;;;5060554;28;20471;-67
2022/07/31 08:54:40;;;;;;;4.23;2.80;;;20.50;99.90;;;;;;5061600;28;20848;-67
2022/07/31 08:57:07;;;;;;;3.42;2.40;;;20.70;99.90;;;;;;5064684;28;21029;-67
2022/07/31 08:59:34;;;;;;;4.47;3.28;;;21.00;99.90;;;;;;5067063;28;20391;-67
2022/07/31 09:02:00;;;;;;;4.40;3.45;;;21.10;99.90;;;;;;5066582;28;20372;-67
2022/07/31 09:04:27;;;;;;;4.15;2.75;;;21.10;99.90;;;;;;5067377;28;20391;-67
2022/07/31 09:06:55;;;;;;;6.03;4.00;;;21.20;99.90;;;;;;5066707;28;20387;-67
2022/07/31 09:09:21;;;;;;;5.65;3.70;;;20.90;99.90;;;;;;5064446;28;20421;-67
2022/07/31 09:11:54;;;;;;;9.05;3.70;;;20.80;99.90;;;;;;5065141;28;20409;-67
2022/07/31 09:14:29;;;;;;;4.35;2.97;;;20.70;99.90;;;;;;5067006;28;20396;-67
2022/07/31 09:16:56;;;;;;;4.55;3.30;;;20.90;99.90;;;;;;5067893;28;20399;-67
2022/07/31 09:19:35;;;;;;;3.90;2.65;;;20.90;99.90;;;;;;5065194;28;20380;-67
2022/07/31 09:22:01;;;;;;;3.65;2.60;;;21.00;99.90;;;;;;5064273;28;20387;-67
2022/07/31 09:24:31;;;;;;;4.63;3.20;;;21.10;99.90;;;;;;5060845;28;20633;-67
2022/07/31 09:27:05;;;;;;;5.10;3.17;;;21.10;99.90;;;;;;5061677;28;20388;-67
2022/07/31 09:29:42;;;;;;;5.28;2.58;;;21.20;99.90;;;;;;5064521;28;20384;-67
2022/07/31 09:32:11;;;;;;;3.10;2.15;;;21.30;99.90;;;;;;5067078;28;20412;-67
2022/07/31 09:34:37;;;;;;;1.70;1.60;;;21.40;99.90;;;;;;5069348;28;20683;-67
2022/07/31 09:37:16;;;;;;;2.42;1.65;;;21.60;99.90;;;;;;5070362;28;20858;-67
2022/07/31 09:39:51;;;;;;;3.13;2.42;;;21.80;99.90;;;;;;5072387;28;20927;-67
2022/07/31 09:42:18;;;;;;;4.13;2.40;;;21.70;99.90;;;;;;5072514;28;20478;-67
2022/07/31 09:44:46;;;;;;;3.70;2.33;;;21.60;99.90;;;;;;5071751;28;20383;-67
2022/07/31 09:47:38;;;;;;;5.07;2.70;;;21.60;99.90;;;;;;5063410;28;20382;-67
2022/07/31 09:50:04;;;;;;;4.05;2.33;;;21.60;99.90;;;;;;5062651;28;20619;-67
2022/07/31 09:52:31;;;;;;;7.05;3.33;;;21.70;99.90;;;;;;5063914;28;20394;-67
2022/07/31 09:55:12;;;;;;;4.65;2.60;;;21.60;99.90;;;;;;5062041;28;20413;-67
2022/07/31 09:57:39;;;;;;;3.38;2.50;;;21.50;99.90;;;;;;5060299;28;20504;-67
2022/07/31 10:00:08;;;;;;;2.42;2.10;;;21.70;99.90;;;;;;5065263;28;20775;-67
2022/07/31 10:02:37;;;;;;;2.88;2.00;;;21.90;99.90;;;;;;5064739;28;20386;-67
2022/07/31 10:05:04;;;;;;;3.75;2.05;;;22.20;99.90;;;;;;5065538;28;20397;-67
2022/07/31 10:07:34;;;;;;;6.53;3.03;;;22.40;99.90;;;;;;5065124;28;20990;-68
2022/07/31 10:10:01;;;;;;;3.00;2.08;;;22.40;99.90;;;;;;5064270;28;20402;-67
2022/07/31 10:12:30;;;;;;;3.40;2.08;;;22.60;99.90;;;;;;5064793;28;20392;-67
2022/07/31 10:15:04;;;;;;;4.00;2.27;;;22.70;99.90;;;;;;5065832;28;20787;-68
2022/07/31 10:17:32;;;;;;;3.10;2.35;;;22.80;99.90;;;;;;5064075;28;20478;-68
2022/07/31 10:20:03;;;;;;;2.60;1.90;;;22.80;99.90;;;;;;5066192;28;21091;-68
2022/07/31 10:22:38;;;;;;;3.78;2.80;;;22.90;99.90;;;;;;5065884;28;20394;-68
2022/07/31 10:25:06;;;;;;;3.00;2.25;;;22.80;99.90;;;;;;5066246;28;20406;-68
2022/07/31 10:27:34;;;;;;;2.08;1.80;;;22.80;99.90;;;;;;5064392;28;20461;-68
2022/07/31 10:30:01;;;;;;;3.95;2.40;;;23.00;99.90;;;;;;5062897;28;20645;-68
2022/07/31 10:32:27;;;;;;;3.10;2.00;;;23.10;99.90;;;;;;5061191;28;20552;-68
2022/07/31 10:34:53;;;;;;;5.55;2.85;;;23.10;99.90;;;;;;5061810;28;20396;-68
2022/07/31 10:37:42;;;;;;;3.20;2.00;;;23.20;99.90;;;;;;5062339;28;20403;-68
2022/07/31 10:40:34;;;;;;;2.60;2.00;;;23.30;99.90;;;;;;5060352;28;20387;-68
2022/07/31 10:43:27;;;;;;;2.83;2.03;;;23.50;99.90;;;;;;5060740;28;20591;-68
2022/07/31 10:45:55;;;;;;;4.23;2.27;;;23.70;99.90;;;;;;5052146;28;20816;-68
2022/07/31 10:48:22;;;;;;;2.50;1.90;;;23.70;99.90;;;;;;5056850;28;20677;-68
2022/07/31 10:50:59;;;;;;;3.47;1.80;;;23.90;99.90;;;;;;5056705;28;20379;-69
2022/07/31 10:53:25;;;;;;;3.95;2.05;;;24.00;99.90;;;;;;5054945;28;20554;-68
2022/07/31 10:56:03;;;;;;;1.85;1.55;;;24.00;99.90;;;;;;5055082;28;20560;-68
2022/07/31 10:58:29;;;;;;;2.20;1.80;;;24.10;99.90;;;;;;5055077;28;20487;-68
2022/07/31 11:01:08;;;;;;;2.67;1.80;;;24.20;99.90;;;;;;5050255;28;20667;-68
2022/07/31 11:03:43;;;;;;;3.05;1.90;;;24.30;99.90;;;;;;5047980;28;20380;-68
2022/07/31 11:06:09;;;;;;;4.35;1.70;;;24.20;99.90;;;;;;5044877;28;20498;-68
2022/07/31 11:08:47;;;;;;;2.60;1.80;;;24.30;99.90;;;;;;5047343;28;20655;-68
2022/07/31 11:11:14;;;;;;;4.18;2.05;;;24.20;99.90;;;;;;5047671;28;20644;-68
2022/07/31 11:13:55;;;;;;;3.00;1.80;;;24.00;99.90;;;;;;5051624;28;20379;-68
2022/07/31 11:16:21;;;;;;;4.68;2.30;;;24.00;99.90;;;;;;5049707;28;20379;-68
2022/07/31 11:19:08;;;;;;;4.65;2.15;;;23.90;99.90;;;;;;5052149;28;20416;-68
2022/07/31 11:21:39;;;;;;;8.48;2.17;;;23.80;99.90;;;;;;5055588;28;20666;-68
2022/07/31 11:24:22;;;;;;;4.22;1.92;;;23.80;99.90;;;;;;5052312;28;20799;-68
2022/07/31 11:26:49;;;;;;;3.85;2.13;;;23.70;99.90;;;;;;5054130;28;20734;-68
2022/07/31 11:29:26;;;;;;;3.22;2.00;;;23.70;99.90;;;;;;5056766;28;20731;-68
2022/07/31 11:31:52;;;;;;;4.20;1.95;;;23.80;99.90;;;;;;5055121;28;20465;-68
2022/07/31 11:34:18;;;;;;;2.57;1.60;;;23.90;99.90;;;;;;5056262;28;20513;-66
2022/07/31 11:36:43;;;;;;;2.38;1.50;;;23.90;99.90;;;;;;5056613;28;20587;-67
2022/07/31 11:39:11;;;;;;;3.97;2.10;;;24.20;99.90;;;;;;5058226;28;20452;-67
2022/07/31 11:41:40;;;;;;;2.13;1.92;;;24.20;99.90;;;;;;5055484;28;20460;-67
2022/07/31 11:44:07;;;;;;;3.33;1.67;;;24.30;99.90;;;;;;5057473;28;20400;-66
2022/07/31 11:46:36;;;;;;;2.42;1.70;;;24.50;99.90;;;;;;5057635;28;20535;-66
2022/07/31 11:49:04;;;;;;;5.27;1.97;;;24.60;99.90;;;;;;5059617;28;20704;-66
2022/07/31 11:51:30;;;;;;;2.08;1.35;;;24.50;99.90;;;;;;5058060;28;20395;-67
2022/07/31 11:53:58;;;;;;;1.95;1.30;;;24.60;99.90;;;;;;5057530;28;20600;-67
2022/07/31 11:56:26;;;;;;;2.47;1.67;;;24.90;99.90;;;;;;5056390;28;20474;-66
2022/07/31 11:58:54;;;;;;;4.10;1.80;;;25.00;99.90;;;;;;5058583;28;20807;-68
2022/07/31 12:01:26;;;;;;;3.78;1.50;;;25.00;99.90;;;;;;5056248;28;20392;-67
2022/07/31 12:03:51;;;;;;;4.32;1.90;;;25.00;99.90;;;;;;5056061;28;20912;-67
2022/07/31 12:06:20;;;;;;;3.33;1.85;;;25.10;99.90;;;;;;5058063;28;20399;-67
2022/07/31 12:08:49;;;;;;;2.15;1.63;;;25.20;99.90;;;;;;5045700;28;20395;-67
2022/07/31 12:11:19;;;;;;;2.58;1.83;;;25.20;99.90;;;;;;5062728;28;20784;-67
2022/07/31 12:13:47;;;;;;;1.87;1.50;;;25.20;99.90;;;;;;5060141;28;20388;-68
2022/07/31 12:16:13;;;;;;;2.90;1.88;;;25.20;99.90;;;;;;5061865;28;20422;-68
2022/07/31 12:18:52;;;;;;;4.03;2.07;;;25.00;99.90;;;;;;5063221;28;20439;-67
2022/07/31 12:21:19;;;;;;;2.38;1.77;;;25.00;99.90;;;;;;5061807;28;20388;-68
2022/07/31 12:23:48;;;;;;;2.97;1.90;;;25.00;99.90;;;;;;5057912;28;20398;-68
2022/07/31 12:26:22;;;;;;;4.03;1.92;;;25.20;99.90;;;;;;5055503;28;20460;-68
2022/07/31 12:29:06;;;;;;;4.75;1.90;;;25.40;99.90;;;;;;5054611;28;20649;-68
2022/07/31 12:31:48;;;;;;;3.00;1.70;;;25.60;99.90;;;;;;5057889;28;20540;-68
2022/07/31 12:34:37;;;;;;;3.00;1.52;;;25.80;99.90;;;;;;5062175;28;20399;-68
2022/07/31 12:37:10;;;;;;;3.03;1.90;;;26.00;99.90;;;;;;5061743;28;20701;-67
2022/07/31 12:39:38;;;;;;;2.63;1.85;;;26.00;99.90;;;;;;5059053;28;20383;-68
2022/07/31 12:42:05;;;;;;;2.35;1.50;;;25.90;99.90;;;;;;5063103;28;20411;-70
2022/07/31 12:44:35;;;;;;;4.68;2.10;;;26.10;99.90;;;;;;5065619;28;20445;-68
2022/07/31 12:47:01;;;;;;;2.47;1.52;;;26.20;99.90;;;;;;5062113;28;20476;-68